sensor_id;sensor_type;location;lat;lon;timestamp;P1;durP1;ratioP1;P2;durP2;ratioP2
33864;SDS011;20159;51.072;13.526;2022-12-07T00:01:37;15.55;;;12.95;;
33864;SDS011;20159;51.072;13.526;2022-12-07T00:04:05;17.10;;;13.70;;
33864;SDS011;20159;51.072;13.526;2022-12-07T00:06:32;15.88;;;13.43;;
33864;SDS011;20159;51.072;13.526;2022-12-07T00:08:59;16.25;;;14.27;;
33864;SDS011;20159;51.072;13.526;2022-12-07T00:11:25;17.48;;;14.25;;
33864;SDS011;20159;51.072;13.526;2022-12-07T00:13:55;16.15;;;14.23;;
33864;SDS011;20159;51.072;13.526;2022-12-07T00:16:23;16.20;;;13.70;;
33864;SDS011;20159;51.072;13.526;2022-12-07T00:18:51;17.63;;;14.20;;
33864;SDS011;20159;51.072;13.526;2022-12-07T00:21:18;15.38;;;13.48;;
33864;SDS011;20159;51.072;13.526;2022-12-07T00:23:49;17.60;;;14.20;;
33864;SDS011;20159;51.072;13.526;2022-12-07T00:28:50;19.08;;;15.07;;
33864;SDS011;20159;51.072;13.526;2022-12-07T00:31:18;20.35;;;16.02;;
33864;SDS011;20159;51.072;13.526;2022-12-07T00:33:45;17.67;;;14.55;;
33864;SDS011;20159;51.072;13.526;2022-12-07T00:36:11;18.67;;;15.55;;
33864;SDS011;20159;51.072;13.526;2022-12-07T00:38:39;19.20;;;15.00;;
33864;SDS011;20159;51.072;13.526;2022-12-07T00:41:06;18.10;;;16.15;;
33864;SDS011;20159;51.072;13.526;2022-12-07T00:43:35;18.75;;;15.73;;
33864;SDS011;20159;51.072;13.526;2022-12-07T00:46:00;21.02;;;15.52;;
33864;SDS011;20159;51.072;13.526;2022-12-07T00:48:26;19.48;;;16.08;;
33864;SDS011;20159;51.072;13.526;2022-12-07T00:50:52;20.23;;;15.77;;
33864;SDS011;20159;51.072;13.526;2022-12-07T00:53:17;18.80;;;15.48;;
33864;SDS011;20159;51.072;13.526;2022-12-07T00:55:43;18.88;;;15.82;;
33864;SDS011;20159;51.072;13.526;2022-12-07T00:58:09;19.85;;;16.45;;
33864;SDS011;20159;51.072;13.526;2022-12-07T01:00:36;20.52;;;16.15;;
33864;SDS011;20159;51.072;13.526;2022-12-07T01:03:03;19.20;;;15.60;;
33864;SDS011;20159;51.072;13.526;2022-12-07T01:05:29;19.33;;;14.88;;
33864;SDS011;20159;51.072;13.526;2022-12-07T01:07:54;17.60;;;15.10;;
33864;SDS011;20159;51.072;13.526;2022-12-07T01:10:20;17.85;;;15.07;;
33864;SDS011;20159;51.072;13.526;2022-12-07T01:12:45;19.48;;;16.15;;
33864;SDS011;20159;51.072;13.526;2022-12-07T01:15:11;17.08;;;14.57;;
33864;SDS011;20159;51.072;13.526;2022-12-07T01:17:37;18.17;;;15.55;;
33864;SDS011;20159;51.072;13.526;2022-12-07T01:20:02;18.38;;;15.57;;
33864;SDS011;20159;51.072;13.526;2022-12-07T01:22:28;18.90;;;15.23;;
33864;SDS011;20159;51.072;13.526;2022-12-07T01:24:54;17.58;;;13.73;;
33864;SDS011;20159;51.072;13.526;2022-12-07T01:27:20;18.05;;;15.27;;
33864;SDS011;20159;51.072;13.526;2022-12-07T01:29:45;16.42;;;14.00;;
33864;SDS011;20159;51.072;13.526;2022-12-07T01:32:11;15.75;;;13.98;;
33864;SDS011;20159;51.072;13.526;2022-12-07T01:34:37;17.23;;;13.88;;
33864;SDS011;20159;51.072;13.526;2022-12-07T01:37:03;15.75;;;13.68;;
33864;SDS011;20159;51.072;13.526;2022-12-07T01:39:29;16.33;;;14.40;;
33864;SDS011;20159;51.072;13.526;2022-12-07T01:41:54;20.98;;;14.70;;
33864;SDS011;20159;51.072;13.526;2022-12-07T01:44:24;16.33;;;14.15;;
33864;SDS011;20159;51.072;13.526;2022-12-07T01:52:20;13.95;;;12.07;;
33864;SDS011;20159;51.072;13.526;2022-12-07T01:54:52;14.63;;;12.25;;
33864;SDS011;20159;51.072;13.526;2022-12-07T01:57:21;13.73;;;12.02;;
33864;SDS011;20159;51.072;13.526;2022-12-07T01:59:48;15.40;;;12.13;;
33864;SDS011;20159;51.072;13.526;2022-12-07T02:02:25;15.52;;;12.40;;
33864;SDS011;20159;51.072;13.526;2022-12-07T02:04:56;11.63;;;10.43;;
33864;SDS011;20159;51.072;13.526;2022-12-07T02:07:23;11.88;;;10.60;;
33864;SDS011;20159;51.072;13.526;2022-12-07T02:09:50;12.93;;;11.52;;
33864;SDS011;20159;51.072;13.526;2022-12-07T02:12:15;13.30;;;11.05;;
33864;SDS011;20159;51.072;13.526;2022-12-07T02:14:41;11.73;;;10.40;;
33864;SDS011;20159;51.072;13.526;2022-12-07T02:17:21;13.80;;;12.30;;
33864;SDS011;20159;51.072;13.526;2022-12-07T02:23:00;13.85;;;12.15;;
33864;SDS011;20159;51.072;13.526;2022-12-07T02:30:57;15.07;;;13.45;;
33864;SDS011;20159;51.072;13.526;2022-12-07T02:33:28;17.33;;;14.40;;
33864;SDS011;20159;51.072;13.526;2022-12-07T02:36:02;17.23;;;14.55;;
33864;SDS011;20159;51.072;13.526;2022-12-07T02:38:55;16.67;;;13.98;;
33864;SDS011;20159;51.072;13.526;2022-12-07T02:41:32;17.70;;;14.65;;
33864;SDS011;20159;51.072;13.526;2022-12-07T02:44:05;18.75;;;15.40;;
33864;SDS011;20159;51.072;13.526;2022-12-07T02:46:34;18.27;;;16.27;;
33864;SDS011;20159;51.072;13.526;2022-12-07T02:49:03;19.10;;;16.13;;
33864;SDS011;20159;51.072;13.526;2022-12-07T02:51:30;20.80;;;16.27;;
33864;SDS011;20159;51.072;13.526;2022-12-07T02:53:57;19.58;;;17.13;;
33864;SDS011;20159;51.072;13.526;2022-12-07T02:56:27;21.55;;;17.55;;
33864;SDS011;20159;51.072;13.526;2022-12-07T03:04:43;19.90;;;16.92;;
33864;SDS011;20159;51.072;13.526;2022-12-07T03:12:45;21.35;;;17.13;;
33864;SDS011;20159;51.072;13.526;2022-12-07T03:15:23;19.73;;;16.83;;
33864;SDS011;20159;51.072;13.526;2022-12-07T03:17:54;20.20;;;17.13;;
33864;SDS011;20159;51.072;13.526;2022-12-07T03:20:23;20.60;;;17.17;;
33864;SDS011;20159;51.072;13.526;2022-12-07T03:22:50;21.08;;;16.90;;
33864;SDS011;20159;51.072;13.526;2022-12-07T03:25:18;23.23;;;18.08;;
33864;SDS011;20159;51.072;13.526;2022-12-07T03:27:47;21.73;;;18.13;;
33864;SDS011;20159;51.072;13.526;2022-12-07T03:30:22;20.70;;;17.33;;
33864;SDS011;20159;51.072;13.526;2022-12-07T03:32:53;20.98;;;17.77;;
33864;SDS011;20159;51.072;13.526;2022-12-07T03:35:45;23.08;;;18.23;;
33864;SDS011;20159;51.072;13.526;2022-12-07T03:38:20;22.52;;;17.13;;
33864;SDS011;20159;51.072;13.526;2022-12-07T03:40:52;21.65;;;16.95;;
33864;SDS011;20159;51.072;13.526;2022-12-07T03:43:31;22.95;;;18.13;;
33864;SDS011;20159;51.072;13.526;2022-12-07T03:46:11;20.58;;;17.80;;
33864;SDS011;20159;51.072;13.526;2022-12-07T03:48:42;23.42;;;19.38;;
33864;SDS011;20159;51.072;13.526;2022-12-07T03:54:20;25.67;;;18.63;;
33864;SDS011;20159;51.072;13.526;2022-12-07T03:56:59;20.92;;;17.23;;
33864;SDS011;20159;51.072;13.526;2022-12-07T03:59:27;23.00;;;19.13;;
33864;SDS011;20159;51.072;13.526;2022-12-07T04:01:55;23.65;;;18.05;;
33864;SDS011;20159;51.072;13.526;2022-12-07T04:04:25;22.63;;;17.75;;
33864;SDS011;20159;51.072;13.526;2022-12-07T04:06:51;21.75;;;17.88;;
33864;SDS011;20159;51.072;13.526;2022-12-07T04:09:17;22.13;;;17.83;;
33864;SDS011;20159;51.072;13.526;2022-12-07T04:11:43;25.00;;;18.27;;
33864;SDS011;20159;51.072;13.526;2022-12-07T04:14:08;21.08;;;16.80;;
33864;SDS011;20159;51.072;13.526;2022-12-07T04:16:44;21.73;;;17.80;;
33864;SDS011;20159;51.072;13.526;2022-12-07T04:19:13;20.25;;;17.02;;
33864;SDS011;20159;51.072;13.526;2022-12-07T04:21:39;21.23;;;16.90;;
33864;SDS011;20159;51.072;13.526;2022-12-07T04:24:04;19.67;;;16.73;;
33864;SDS011;20159;51.072;13.526;2022-12-07T04:26:30;23.05;;;17.73;;
33864;SDS011;20159;51.072;13.526;2022-12-07T04:28:56;20.50;;;16.52;;
33864;SDS011;20159;51.072;13.526;2022-12-07T04:31:21;20.10;;;16.25;;
33864;SDS011;20159;51.072;13.526;2022-12-07T04:33:47;19.55;;;15.88;;
33864;SDS011;20159;51.072;13.526;2022-12-07T04:36:12;21.42;;;17.00;;
33864;SDS011;20159;51.072;13.526;2022-12-07T04:38:38;18.10;;;14.82;;
33864;SDS011;20159;51.072;13.526;2022-12-07T04:41:07;18.85;;;15.18;;
33864;SDS011;20159;51.072;13.526;2022-12-07T04:43:33;18.15;;;15.20;;
33864;SDS011;20159;51.072;13.526;2022-12-07T04:46:00;20.30;;;15.27;;
33864;SDS011;20159;51.072;13.526;2022-12-07T04:48:25;17.20;;;14.50;;
33864;SDS011;20159;51.072;13.526;2022-12-07T04:50:51;17.88;;;14.38;;
33864;SDS011;20159;51.072;13.526;2022-12-07T04:53:16;17.25;;;14.18;;
33864;SDS011;20159;51.072;13.526;2022-12-07T04:55:43;18.10;;;13.70;;
33864;SDS011;20159;51.072;13.526;2022-12-07T04:58:09;16.48;;;13.35;;
33864;SDS011;20159;51.072;13.526;2022-12-07T05:00:35;17.27;;;13.02;;
33864;SDS011;20159;51.072;13.526;2022-12-07T05:03:00;14.98;;;12.77;;
33864;SDS011;20159;51.072;13.526;2022-12-07T05:05:26;14.02;;;12.20;;
33864;SDS011;20159;51.072;13.526;2022-12-07T05:07:51;14.90;;;11.55;;
33864;SDS011;20159;51.072;13.526;2022-12-07T05:10:18;14.63;;;11.23;;
33864;SDS011;20159;51.072;13.526;2022-12-07T05:12:43;13.77;;;11.13;;
33864;SDS011;20159;51.072;13.526;2022-12-07T05:15:10;13.52;;;11.52;;
33864;SDS011;20159;51.072;13.526;2022-12-07T05:17:36;13.07;;;10.13;;
33864;SDS011;20159;51.072;13.526;2022-12-07T05:20:02;11.63;;;10.40;;
33864;SDS011;20159;51.072;13.526;2022-12-07T05:22:28;10.93;;;9.18;;
33864;SDS011;20159;51.072;13.526;2022-12-07T05:24:54;10.45;;;9.35;;
33864;SDS011;20159;51.072;13.526;2022-12-07T05:27:20;11.70;;;8.95;;
33864;SDS011;20159;51.072;13.526;2022-12-07T05:29:45;10.35;;;8.18;;
33864;SDS011;20159;51.072;13.526;2022-12-07T05:32:11;9.80;;;8.80;;
33864;SDS011;20159;51.072;13.526;2022-12-07T05:34:37;9.50;;;8.00;;
33864;SDS011;20159;51.072;13.526;2022-12-07T05:37:02;8.55;;;7.25;;
33864;SDS011;20159;51.072;13.526;2022-12-07T05:39:28;8.98;;;7.97;;
33864;SDS011;20159;51.072;13.526;2022-12-07T05:41:53;9.13;;;7.93;;
33864;SDS011;20159;51.072;13.526;2022-12-07T05:44:38;9.00;;;8.07;;
33864;SDS011;20159;51.072;13.526;2022-12-07T05:47:04;9.60;;;7.68;;
33864;SDS011;20159;51.072;13.526;2022-12-07T05:49:29;9.98;;;8.55;;
33864;SDS011;20159;51.072;13.526;2022-12-07T05:51:55;8.77;;;7.88;;
33864;SDS011;20159;51.072;13.526;2022-12-07T05:54:20;8.88;;;7.82;;
33864;SDS011;20159;51.072;13.526;2022-12-07T05:56:46;9.35;;;7.88;;
33864;SDS011;20159;51.072;13.526;2022-12-07T05:59:11;9.18;;;8.20;;
33864;SDS011;20159;51.072;13.526;2022-12-07T06:01:50;8.52;;;7.63;;
33864;SDS011;20159;51.072;13.526;2022-12-07T06:04:17;7.80;;;7.00;;
33864;SDS011;20159;51.072;13.526;2022-12-07T06:06:44;10.52;;;7.57;;
33864;SDS011;20159;51.072;13.526;2022-12-07T06:09:10;9.65;;;7.15;;
33864;SDS011;20159;51.072;13.526;2022-12-07T06:11:35;8.10;;;7.28;;
33864;SDS011;20159;51.072;13.526;2022-12-07T06:14:20;10.15;;;7.88;;
33864;SDS011;20159;51.072;13.526;2022-12-07T06:16:45;8.70;;;7.88;;
33864;SDS011;20159;51.072;13.526;2022-12-07T06:19:11;8.93;;;8.02;;
33864;SDS011;20159;51.072;13.526;2022-12-07T06:21:37;8.15;;;7.35;;
33864;SDS011;20159;51.072;13.526;2022-12-07T06:24:02;9.60;;;8.23;;
33864;SDS011;20159;51.072;13.526;2022-12-07T06:26:28;10.90;;;8.30;;
33864;SDS011;20159;51.072;13.526;2022-12-07T06:28:54;9.25;;;8.27;;
33864;SDS011;20159;51.072;13.526;2022-12-07T06:31:20;9.13;;;8.23;;
33864;SDS011;20159;51.072;13.526;2022-12-07T06:33:45;11.20;;;7.93;;
33864;SDS011;20159;51.072;13.526;2022-12-07T06:36:11;9.48;;;8.00;;
33864;SDS011;20159;51.072;13.526;2022-12-07T06:38:37;9.75;;;8.77;;
33864;SDS011;20159;51.072;13.526;2022-12-07T06:41:02;9.93;;;8.85;;
33864;SDS011;20159;51.072;13.526;2022-12-07T06:43:28;9.70;;;8.70;;
33864;SDS011;20159;51.072;13.526;2022-12-07T06:45:54;9.25;;;8.30;;
33864;SDS011;20159;51.072;13.526;2022-12-07T06:48:19;9.82;;;8.85;;
33864;SDS011;20159;51.072;13.526;2022-12-07T06:50:45;9.95;;;8.50;;
33864;SDS011;20159;51.072;13.526;2022-12-07T06:53:12;10.60;;;8.90;;
33864;SDS011;20159;51.072;13.526;2022-12-07T06:55:37;9.32;;;8.38;;
33864;SDS011;20159;51.072;13.526;2022-12-07T06:58:03;10.10;;;8.68;;
33864;SDS011;20159;51.072;13.526;2022-12-07T07:00:28;9.02;;;8.00;;
33864;SDS011;20159;51.072;13.526;2022-12-07T07:02:54;10.63;;;9.40;;
33864;SDS011;20159;51.072;13.526;2022-12-07T07:05:20;9.18;;;8.23;;
33864;SDS011;20159;51.072;13.526;2022-12-07T07:07:49;10.05;;;9.05;;
33864;SDS011;20159;51.072;13.526;2022-12-07T07:10:15;9.57;;;8.68;;
33864;SDS011;20159;51.072;13.526;2022-12-07T07:12:40;9.15;;;8.25;;
33864;SDS011;20159;51.072;13.526;2022-12-07T07:15:06;11.23;;;8.80;;
33864;SDS011;20159;51.072;13.526;2022-12-07T07:17:32;9.02;;;8.18;;
33864;SDS011;20159;51.072;13.526;2022-12-07T07:19:58;9.23;;;8.32;;
33864;SDS011;20159;51.072;13.526;2022-12-07T07:22:23;9.45;;;8.45;;
33864;SDS011;20159;51.072;13.526;2022-12-07T07:24:49;9.05;;;8.15;;
33864;SDS011;20159;51.072;13.526;2022-12-07T07:27:14;8.75;;;7.90;;
33864;SDS011;20159;51.072;13.526;2022-12-07T07:29:40;9.10;;;8.10;;
33864;SDS011;20159;51.072;13.526;2022-12-07T07:32:05;9.07;;;8.10;;
33864;SDS011;20159;51.072;13.526;2022-12-07T07:34:32;8.80;;;7.93;;
33864;SDS011;20159;51.072;13.526;2022-12-07T07:36:59;8.85;;;7.93;;
33864;SDS011;20159;51.072;13.526;2022-12-07T07:39:25;9.50;;;8.60;;
33864;SDS011;20159;51.072;13.526;2022-12-07T07:41:50;9.60;;;8.57;;
33864;SDS011;20159;51.072;13.526;2022-12-07T07:44:16;11.35;;;9.52;;
33864;SDS011;20159;51.072;13.526;2022-12-07T07:46:41;14.05;;;11.13;;
33864;SDS011;20159;51.072;13.526;2022-12-07T07:49:07;14.98;;;11.65;;
33864;SDS011;20159;51.072;13.526;2022-12-07T07:51:35;12.52;;;11.15;;
33864;SDS011;20159;51.072;13.526;2022-12-07T07:54:00;12.95;;;11.50;;
33864;SDS011;20159;51.072;13.526;2022-12-07T07:56:26;13.73;;;12.27;;
33864;SDS011;20159;51.072;13.526;2022-12-07T07:58:52;14.43;;;12.93;;
33864;SDS011;20159;51.072;13.526;2022-12-07T08:01:18;14.27;;;12.88;;
33864;SDS011;20159;51.072;13.526;2022-12-07T08:03:44;15.65;;;13.75;;
33864;SDS011;20159;51.072;13.526;2022-12-07T08:06:11;15.40;;;13.23;;
33864;SDS011;20159;51.072;13.526;2022-12-07T08:08:37;13.82;;;12.43;;
33864;SDS011;20159;51.072;13.526;2022-12-07T08:11:06;14.93;;;13.38;;
33864;SDS011;20159;51.072;13.526;2022-12-07T08:13:32;19.13;;;14.00;;
33864;SDS011;20159;51.072;13.526;2022-12-07T08:15:57;14.82;;;12.90;;
33864;SDS011;20159;51.072;13.526;2022-12-07T08:18:23;16.92;;;13.65;;
33864;SDS011;20159;51.072;13.526;2022-12-07T08:20:49;17.52;;;14.85;;
33864;SDS011;20159;51.072;13.526;2022-12-07T08:23:14;16.33;;;13.88;;
33864;SDS011;20159;51.072;13.526;2022-12-07T08:25:40;16.77;;;13.80;;
33864;SDS011;20159;51.072;13.526;2022-12-07T08:28:06;15.90;;;14.18;;
33864;SDS011;20159;51.072;13.526;2022-12-07T08:30:32;14.88;;;13.38;;
33864;SDS011;20159;51.072;13.526;2022-12-07T08:32:58;14.80;;;13.30;;
33864;SDS011;20159;51.072;13.526;2022-12-07T08:35:24;15.10;;;13.48;;
33864;SDS011;20159;51.072;13.526;2022-12-07T08:37:49;15.68;;;13.07;;
33864;SDS011;20159;51.072;13.526;2022-12-07T08:40:15;16.33;;;13.35;;
33864;SDS011;20159;51.072;13.526;2022-12-07T08:42:50;14.25;;;12.45;;
33864;SDS011;20159;51.072;13.526;2022-12-07T08:45:16;15.50;;;12.45;;
33864;SDS011;20159;51.072;13.526;2022-12-07T08:47:50;13.68;;;12.27;;
33864;SDS011;20159;51.072;13.526;2022-12-07T08:50:21;14.35;;;11.82;;
33864;SDS011;20159;51.072;13.526;2022-12-07T08:52:51;13.90;;;12.40;;
33864;SDS011;20159;51.072;13.526;2022-12-07T08:55:19;16.25;;;12.38;;
33864;SDS011;20159;51.072;13.526;2022-12-07T08:57:44;14.27;;;12.77;;
33864;SDS011;20159;51.072;13.526;2022-12-07T09:00:10;13.10;;;11.70;;
33864;SDS011;20159;51.072;13.526;2022-12-07T09:02:37;11.77;;;10.57;;
33864;SDS011;20159;51.072;13.526;2022-12-07T09:05:02;12.13;;;10.80;;
33864;SDS011;20159;51.072;13.526;2022-12-07T09:07:29;14.85;;;11.48;;
33864;SDS011;20159;51.072;13.526;2022-12-07T09:09:56;12.10;;;10.70;;
33864;SDS011;20159;51.072;13.526;2022-12-07T09:12:22;13.73;;;11.32;;
33864;SDS011;20159;51.072;13.526;2022-12-07T09:14:47;12.00;;;10.43;;
33864;SDS011;20159;51.072;13.526;2022-12-07T09:17:13;12.82;;;11.32;;
33864;SDS011;20159;51.072;13.526;2022-12-07T09:19:39;11.35;;;10.15;;
33864;SDS011;20159;51.072;13.526;2022-12-07T09:22:05;11.00;;;9.90;;
33864;SDS011;20159;51.072;13.526;2022-12-07T09:24:31;11.27;;;10.00;;
33864;SDS011;20159;51.072;13.526;2022-12-07T09:26:57;12.02;;;10.30;;
33864;SDS011;20159;51.072;13.526;2022-12-07T09:29:23;12.77;;;10.25;;
33864;SDS011;20159;51.072;13.526;2022-12-07T09:31:48;11.02;;;9.88;;
33864;SDS011;20159;51.072;13.526;2022-12-07T09:34:14;11.02;;;9.65;;
33864;SDS011;20159;51.072;13.526;2022-12-07T09:36:40;11.60;;;9.23;;
33864;SDS011;20159;51.072;13.526;2022-12-07T09:39:07;10.85;;;9.02;;
33864;SDS011;20159;51.072;13.526;2022-12-07T09:41:32;9.77;;;8.70;;
33864;SDS011;20159;51.072;13.526;2022-12-07T09:44:06;12.48;;;9.57;;
33864;SDS011;20159;51.072;13.526;2022-12-07T09:46:38;13.85;;;10.23;;
33864;SDS011;20159;51.072;13.526;2022-12-07T09:49:05;10.77;;;9.43;;
33864;SDS011;20159;51.072;13.526;2022-12-07T09:51:41;11.52;;;8.85;;
33864;SDS011;20159;51.072;13.526;2022-12-07T09:54:07;13.13;;;8.95;;
33864;SDS011;20159;51.072;13.526;2022-12-07T09:56:37;10.07;;;8.80;;
33864;SDS011;20159;51.072;13.526;2022-12-07T09:59:03;10.43;;;9.13;;
33864;SDS011;20159;51.072;13.526;2022-12-07T10:01:32;11.70;;;9.43;;
33864;SDS011;20159;51.072;13.526;2022-12-07T10:04:08;10.18;;;8.70;;
33864;SDS011;20159;51.072;13.526;2022-12-07T10:06:35;10.13;;;8.43;;
33864;SDS011;20159;51.072;13.526;2022-12-07T10:09:00;10.02;;;8.90;;
33864;SDS011;20159;51.072;13.526;2022-12-07T10:11:26;11.27;;;9.68;;
33864;SDS011;20159;51.072;13.526;2022-12-07T10:13:52;9.95;;;8.35;;
33864;SDS011;20159;51.072;13.526;2022-12-07T10:18:55;10.10;;;8.45;;
33864;SDS011;20159;51.072;13.526;2022-12-07T10:21:21;9.93;;;8.57;;
33864;SDS011;20159;51.072;13.526;2022-12-07T10:29:18;9.85;;;8.85;;
33864;SDS011;20159;51.072;13.526;2022-12-07T10:31:50;10.20;;;8.57;;
33864;SDS011;20159;51.072;13.526;2022-12-07T10:34:31;9.93;;;8.85;;
33864;SDS011;20159;51.072;13.526;2022-12-07T10:37:22;11.68;;;9.50;;
33864;SDS011;20159;51.072;13.526;2022-12-07T10:45:07;10.35;;;8.45;;
33864;SDS011;20159;51.072;13.526;2022-12-07T10:47:51;9.13;;;8.23;;
33864;SDS011;20159;51.072;13.526;2022-12-07T10:50:56;13.82;;;8.73;;
33864;SDS011;20159;51.072;13.526;2022-12-07T10:59:38;13.52;;;8.70;;
33864;SDS011;20159;51.072;13.526;2022-12-07T11:02:22;11.20;;;8.63;;
33864;SDS011;20159;51.072;13.526;2022-12-07T11:05:10;10.95;;;8.30;;
33864;SDS011;20159;51.072;13.526;2022-12-07T11:07:52;12.30;;;8.98;;
33864;SDS011;20159;51.072;13.526;2022-12-07T11:10:32;11.57;;;8.85;;
33864;SDS011;20159;51.072;13.526;2022-12-07T11:16:34;11.32;;;8.10;;
33864;SDS011;20159;51.072;13.526;2022-12-07T11:19:17;11.32;;;8.48;;
33864;SDS011;20159;51.072;13.526;2022-12-07T11:22:06;9.50;;;8.10;;
33864;SDS011;20159;51.072;13.526;2022-12-07T11:24:46;10.07;;;8.30;;
33864;SDS011;20159;51.072;13.526;2022-12-07T11:30:10;10.95;;;8.07;;
33864;SDS011;20159;51.072;13.526;2022-12-07T11:32:48;11.00;;;7.88;;
33864;SDS011;20159;51.072;13.526;2022-12-07T11:38:17;10.10;;;8.05;;
33864;SDS011;20159;51.072;13.526;2022-12-07T11:40:51;13.40;;;9.60;;
33864;SDS011;20159;51.072;13.526;2022-12-07T11:43:22;11.63;;;9.52;;
33864;SDS011;20159;51.072;13.526;2022-12-07T11:50:57;11.85;;;9.80;;
33864;SDS011;20159;51.072;13.526;2022-12-07T11:56:00;13.07;;;9.70;;
33864;SDS011;20159;51.072;13.526;2022-12-07T11:58:44;11.55;;;9.15;;
33864;SDS011;20159;51.072;13.526;2022-12-07T12:03:48;12.88;;;8.85;;
33864;SDS011;20159;51.072;13.526;2022-12-07T12:06:17;9.75;;;8.20;;
33864;SDS011;20159;51.072;13.526;2022-12-07T12:14:19;9.55;;;7.63;;
33864;SDS011;20159;51.072;13.526;2022-12-07T12:17:21;10.27;;;6.22;;
33864;SDS011;20159;51.072;13.526;2022-12-07T12:23:21;5.43;;;3.92;;
33864;SDS011;20159;51.072;13.526;2022-12-07T12:25:52;6.47;;;3.20;;
33864;SDS011;20159;51.072;13.526;2022-12-07T12:28:23;4.47;;;2.30;;
33864;SDS011;20159;51.072;13.526;2022-12-07T12:31:12;2.67;;;2.10;;
33864;SDS011;20159;51.072;13.526;2022-12-07T12:34:00;3.55;;;2.53;;
33864;SDS011;20159;51.072;13.526;2022-12-07T12:51:47;7.20;;;5.22;;
33864;SDS011;20159;51.072;13.526;2022-12-07T12:54:21;6.00;;;5.40;;
33864;SDS011;20159;51.072;13.526;2022-12-07T12:59:37;6.07;;;5.47;;
33864;SDS011;20159;51.072;13.526;2022-12-07T13:04:53;7.20;;;5.85;;
33864;SDS011;20159;51.072;13.526;2022-12-07T13:15:47;8.23;;;6.80;;
33864;SDS011;20159;51.072;13.526;2022-12-07T13:23:31;8.07;;;7.05;;
33864;SDS011;20159;51.072;13.526;2022-12-07T13:26:04;5.78;;;5.18;;
33864;SDS011;20159;51.072;13.526;2022-12-07T13:29:19;6.38;;;4.68;;
33864;SDS011;20159;51.072;13.526;2022-12-07T13:31:48;4.70;;;4.20;;
33864;SDS011;20159;51.072;13.526;2022-12-07T13:34:33;5.53;;;4.57;;
33864;SDS011;20159;51.072;13.526;2022-12-07T13:37:00;5.60;;;5.10;;
33864;SDS011;20159;51.072;13.526;2022-12-07T13:39:29;6.50;;;5.35;;
33864;SDS011;20159;51.072;13.526;2022-12-07T13:41:58;7.10;;;5.78;;
33864;SDS011;20159;51.072;13.526;2022-12-07T13:44:27;6.55;;;5.88;;
33864;SDS011;20159;51.072;13.526;2022-12-07T13:47:06;6.63;;;5.82;;
33864;SDS011;20159;51.072;13.526;2022-12-07T13:49:49;6.50;;;5.72;;
33864;SDS011;20159;51.072;13.526;2022-12-07T13:55:29;8.38;;;6.00;;
33864;SDS011;20159;51.072;13.526;2022-12-07T13:57:39;7.18;;;6.20;;
33864;SDS011;20159;51.072;13.526;2022-12-07T14:00:13;8.10;;;5.82;;
33864;SDS011;20159;51.072;13.526;2022-12-07T14:03:01;7.20;;;5.57;;
33864;SDS011;20159;51.072;13.526;2022-12-07T14:05:52;7.25;;;5.78;;
33864;SDS011;20159;51.072;13.526;2022-12-07T14:08:40;9.73;;;6.13;;
33864;SDS011;20159;51.072;13.526;2022-12-07T14:11:05;8.15;;;6.20;;
33864;SDS011;20159;51.072;13.526;2022-12-07T14:18:54;8.65;;;5.93;;
33864;SDS011;20159;51.072;13.526;2022-12-07T14:21:22;6.25;;;5.32;;
33864;SDS011;20159;51.072;13.526;2022-12-07T14:26:40;6.40;;;5.78;;
33864;SDS011;20159;51.072;13.526;2022-12-07T14:34:55;6.85;;;4.80;;
33864;SDS011;20159;51.072;13.526;2022-12-07T14:37:38;6.45;;;4.07;;
33864;SDS011;20159;51.072;13.526;2022-12-07T14:40:05;5.55;;;4.03;;
33864;SDS011;20159;51.072;13.526;2022-12-07T14:42:32;4.80;;;3.72;;
33864;SDS011;20159;51.072;13.526;2022-12-07T14:44:59;5.82;;;3.83;;
33864;SDS011;20159;51.072;13.526;2022-12-07T14:47:26;7.07;;;3.70;;
33864;SDS011;20159;51.072;13.526;2022-12-07T14:49:52;5.15;;;3.72;;
33864;SDS011;20159;51.072;13.526;2022-12-07T14:52:21;5.68;;;3.72;;
33864;SDS011;20159;51.072;13.526;2022-12-07T14:54:51;7.15;;;3.90;;
33864;SDS011;20159;51.072;13.526;2022-12-07T14:57:17;6.53;;;3.80;;
33864;SDS011;20159;51.072;13.526;2022-12-07T14:59:43;5.75;;;4.05;;
33864;SDS011;20159;51.072;13.526;2022-12-07T15:02:09;8.60;;;3.75;;
33864;SDS011;20159;51.072;13.526;2022-12-07T15:04:37;6.40;;;3.65;;
33864;SDS011;20159;51.072;13.526;2022-12-07T15:07:03;6.03;;;3.45;;
33864;SDS011;20159;51.072;13.526;2022-12-07T15:09:30;7.00;;;3.25;;
33864;SDS011;20159;51.072;13.526;2022-12-07T15:11:55;5.45;;;3.55;;
33864;SDS011;20159;51.072;13.526;2022-12-07T15:14:21;6.97;;;3.22;;
33864;SDS011;20159;51.072;13.526;2022-12-07T15:16:46;5.07;;;3.25;;
33864;SDS011;20159;51.072;13.526;2022-12-07T15:19:17;5.32;;;3.08;;
33864;SDS011;20159;51.072;13.526;2022-12-07T15:21:44;7.47;;;2.80;;
33864;SDS011;20159;51.072;13.526;2022-12-07T15:24:11;4.65;;;3.15;;
33864;SDS011;20159;51.072;13.526;2022-12-07T15:26:37;4.35;;;2.50;;
33864;SDS011;20159;51.072;13.526;2022-12-07T15:29:03;3.38;;;2.65;;
33864;SDS011;20159;51.072;13.526;2022-12-07T15:31:29;5.55;;;2.70;;
33864;SDS011;20159;51.072;13.526;2022-12-07T15:33:54;5.97;;;3.13;;
33864;SDS011;20159;51.072;13.526;2022-12-07T15:36:28;5.78;;;2.67;;
33864;SDS011;20159;51.072;13.526;2022-12-07T15:38:55;4.38;;;2.60;;
33864;SDS011;20159;51.072;13.526;2022-12-07T15:41:21;4.13;;;2.60;;
33864;SDS011;20159;51.072;13.526;2022-12-07T15:43:47;4.25;;;2.85;;
33864;SDS011;20159;51.072;13.526;2022-12-07T15:46:35;5.13;;;2.63;;
33864;SDS011;20159;51.072;13.526;2022-12-07T15:49:04;3.97;;;2.75;;
33864;SDS011;20159;51.072;13.526;2022-12-07T15:51:33;5.00;;;3.10;;
33864;SDS011;20159;51.072;13.526;2022-12-07T15:53:59;5.60;;;2.92;;
33864;SDS011;20159;51.072;13.526;2022-12-07T15:56:25;4.63;;;2.40;;
33864;SDS011;20159;51.072;13.526;2022-12-07T15:58:50;5.28;;;3.10;;
33864;SDS011;20159;51.072;13.526;2022-12-07T16:01:17;5.20;;;3.03;;
33864;SDS011;20159;51.072;13.526;2022-12-07T16:03:44;3.10;;;2.40;;
33864;SDS011;20159;51.072;13.526;2022-12-07T16:06:10;7.18;;;3.47;;
33864;SDS011;20159;51.072;13.526;2022-12-07T16:08:36;5.05;;;3.53;;
33864;SDS011;20159;51.072;13.526;2022-12-07T16:11:05;4.43;;;2.97;;
33864;SDS011;20159;51.072;13.526;2022-12-07T16:13:32;5.65;;;3.28;;
33864;SDS011;20159;51.072;13.526;2022-12-07T16:15:58;4.13;;;3.08;;
33864;SDS011;20159;51.072;13.526;2022-12-07T16:18:26;3.53;;;3.00;;
33864;SDS011;20159;51.072;13.526;2022-12-07T16:20:52;4.93;;;3.40;;
33864;SDS011;20159;51.072;13.526;2022-12-07T16:23:17;5.80;;;3.28;;
33864;SDS011;20159;51.072;13.526;2022-12-07T16:25:43;4.00;;;2.75;;
33864;SDS011;20159;51.072;13.526;2022-12-07T16:28:09;4.53;;;2.50;;
33864;SDS011;20159;51.072;13.526;2022-12-07T16:30:34;5.22;;;2.97;;
33864;SDS011;20159;51.072;13.526;2022-12-07T16:33:00;6.38;;;3.17;;
33864;SDS011;20159;51.072;13.526;2022-12-07T16:35:25;3.65;;;2.72;;
33864;SDS011;20159;51.072;13.526;2022-12-07T16:37:51;5.70;;;3.20;;
33864;SDS011;20159;51.072;13.526;2022-12-07T16:40:16;7.20;;;3.35;;
33864;SDS011;20159;51.072;13.526;2022-12-07T16:42:42;4.57;;;3.00;;